This is the latest recevied weather packets stored in our database for station/object EW6851. If no packets are shown the sender has not sent any weather packets the latest 10 day(s).
| Time | Temp. | Humidity | Pressure | Rain* | Wind** | Luminosity | Snow |
|---|---|---|---|---|---|---|---|
| 1778230911 | 22.78° C | 61% | 1011.4 hPa | 0 mm | - | 759 W/m² | - |
| 1778229408 | 22.22° C | 63% | 1011.4 hPa | 0 mm | - | 715 W/m² | - |
| 1778229108 | 22.22° C | 63% | 1011.4 hPa | 0 mm | - | 707 W/m² | - |
| 1778228808 | 22.22° C | 62% | 1011.3 hPa | 0 mm | - | 696 W/m² | - |
| 1778226108 | 22.22° C | 62% | 1011.2 hPa | 0 mm | - | 647 W/m² | - |
| 1778224922 | 22.22° C | 63% | 1011.1 hPa | 0 mm | - | 575 W/m² | - |
| 1778224319 | 21.67° C | 64% | 1011 hPa | 0 mm | - | 346 W/m² | - |
| 1778224019 | 21.11° C | 64% | 1011.2 hPa | 0 mm | - | 290 W/m² | - |
| 1778223419 | 21.11° C | 65% | 1011.1 hPa | 0 mm | - | 274 W/m² | - |
| 1778222519 | 21.11° C | 67% | 1011 hPa | 0 mm | - | 216 W/m² | - |
| 1778221019 | 20.56° C | 67% | 1010.9 hPa | 0 mm | - | 179 W/m² | - |
| 1778220725 | 20.56° C | 68% | 1010.7 hPa | 0 mm | - | 221 W/m² | - |
| 1778220128 | 20° C | 69% | 1010.6 hPa | 0 mm | - | 185 W/m² | - |
| 1778218019 | 18.89° C | 72% | 1010.2 hPa | 0 mm | - | 218 W/m² | - |
| 1778217119 | 18.33° C | 72% | 1010.1 hPa | 0 mm | - | 81 W/m² | - |
| 1778216222 | 18.33° C | 72% | 1009.7 hPa | 0 mm | - | 47 W/m² | - |
| 1778215025 | 17.78° C | 74% | 1009.6 hPa | 0 mm | - | 33 W/m² | - |
| 1778214119 | 18.33° C | 74% | 1009.5 hPa | 0 mm | - | 21 W/m² | - |
| 1778213822 | 18.33° C | 74% | 1009.5 hPa | 0 mm | - | 21 W/m² | - |
| 1778213220 | 18.33° C | 73% | 1009.4 hPa | 0 mm | - | 9 W/m² | - |
| 1778211722 | 18.89° C | 71% | 1008.9 hPa | 0 mm | - | 0 W/m² | - |
| 1778209919 | 19.44° C | 69% | 1008.7 hPa | 0 mm | - | 0 W/m² | - |
| 1778209320 | 19.44° C | 69% | 1008.7 hPa | 0 mm | - | 0 W/m² | - |
| 1778209022 | 19.44° C | 69% | 1008.8 hPa | 0 mm | - | 0 W/m² | - |
| 1778207822 | 19.44° C | 68% | 1008.7 hPa | 0 mm | - | 0 W/m² | - |
* Rain latest hour (hover to see other rain measurements)
** Current wind speed in m/s (hover to see current wind gust speed)